KSME/SME METAR and TAF weather

Enter ICAO airport designator
Station Type Date Time Source
KSME METAR 2022/08/13 11:35 UTC NOAA

KSME 131135Z AUTO 00000KT 10SM CLR 14/14 A3013 RMK AO2


Station Type Date Time Source
KSME Decoded METAR 2022/08/13 11:35 UTC NOAA

Somerset, Somerset-Pulaski County - J.T. Wilson Field Airport, KY, United States (KSME) 37-03-15N 084-36-54W
Aug 13, 2022 - 07:35 AM EDT / 2022.08.13 1135 UTC
Wind: Calm:0
Visibility: 10 mile(s):0
Sky conditions: clear
Temperature: 57 F (14 C)
Dew Point: 57 F (14 C)
Relative Humidity: 100%
Pressure (altimeter): 30.13 in. Hg (1020 hPa)
ob: KSME 131135Z AUTO 00000KT 10SM CLR 14/14 A3013 RMK AO2
cycle: 11

Station Type Date Time Source
KSME TAF 2022/08/13 12:36 UTC NOAA

TAF KSME 131135Z 1312/1412 VRB03KT P6SM FEW250
FM140900 VRB03KT P6SM SCT100 BKN250

Example: see airport list